Time;durP1;ratioP1;P1;durP2;ratioP2;P2;SDS_P1;SDS_P2;PMS_P1;PMS_P2;Temp;Humidity;BMP_temperature;BMP_pressure;BME280_temperature;BME280_humidity;BME280_pressure;Samples;Min_cycle;Max_cycle;Signal;HPM_P1;HPM_P2
2021/08/04 00:00:00;;;;;;;1.67;1.58;;;19.80;99.90;;;;;;4950474;29;20219;-79
2021/08/04 00:02:27;;;;;;;2.47;2.28;;;19.70;99.90;;;;;;4949804;29;20527;-79
2021/08/04 00:04:53;;;;;;;2.05;1.85;;;19.70;99.90;;;;;;4950234;29;20203;-80
2021/08/04 00:07:20;;;;;;;2.53;2.20;;;19.70;99.90;;;;;;4950457;29;20531;-79
2021/08/04 00:09:47;;;;;;;1.85;1.73;;;19.70;99.90;;;;;;4949736;29;20203;-80
2021/08/04 00:12:13;;;;;;;2.10;1.90;;;19.70;99.90;;;;;;4948601;29;20203;-79
2021/08/04 00:14:40;;;;;;;2.70;1.63;;;19.70;99.90;;;;;;4951907;29;20203;-79
2021/08/04 00:17:08;;;;;;;2.30;1.75;;;19.70;99.90;;;;;;4956483;29;20210;-79
2021/08/04 00:19:35;;;;;;;2.53;2.33;;;19.70;99.90;;;;;;4955649;28;20252;-79
2021/08/04 00:22:03;;;;;;;2.03;1.92;;;19.70;99.90;;;;;;4956622;29;20195;-79
2021/08/04 00:24:30;;;;;;;2.25;1.70;;;19.70;99.90;;;;;;4949274;28;20269;-79
2021/08/04 00:26:56;;;;;;;2.45;2.25;;;19.60;99.90;;;;;;4948863;29;20210;-79
2021/08/04 00:29:23;;;;;;;2.22;2.03;;;19.70;99.90;;;;;;4951213;29;20203;-79
2021/08/04 00:31:50;;;;;;;2.38;2.10;;;19.60;99.90;;;;;;4953270;29;20202;-79
2021/08/04 00:34:18;;;;;;;2.40;2.20;;;19.60;99.90;;;;;;4956352;29;20202;-78
2021/08/04 00:36:45;;;;;;;2.40;2.00;;;19.60;99.90;;;;;;4954871;29;20208;-79
2021/08/04 00:39:11;;;;;;;2.05;1.90;;;19.60;99.90;;;;;;4956516;28;20222;-79
2021/08/04 00:41:39;;;;;;;1.80;1.70;;;19.60;99.90;;;;;;4955494;29;20221;-79
2021/08/04 00:44:06;;;;;;;3.13;2.47;;;19.60;99.90;;;;;;4955546;29;20803;-77
2021/08/04 00:46:33;;;;;;;1.77;1.65;;;19.60;99.90;;;;;;4955903;29;20206;-78
2021/08/04 00:48:59;;;;;;;3.25;2.03;;;19.60;99.90;;;;;;4954459;29;20195;-78
2021/08/04 00:51:27;;;;;;;2.85;2.20;;;19.60;99.90;;;;;;4954882;29;20199;-77
2021/08/04 00:53:54;;;;;;;1.70;1.60;;;19.60;99.90;;;;;;4975520;28;20693;-79
2021/08/04 00:56:21;;;;;;;2.10;1.90;;;19.60;99.90;;;;;;4993755;28;20541;-79
2021/08/04 00:58:48;;;;;;;2.15;2.00;;;19.50;99.90;;;;;;4994346;28;20196;-83
2021/08/04 01:01:21;;;;;;;2.20;2.00;;;19.60;99.90;;;;;;4992966;28;20197;-80
2021/08/04 01:03:52;;;;;;;2.28;2.08;;;19.50;99.90;;;;;;4994193;28;20189;-80
2021/08/04 01:06:27;;;;;;;2.30;2.10;;;19.50;99.90;;;;;;4992049;28;20212;-80
2021/08/04 01:08:58;;;;;;;2.10;1.90;;;19.50;99.90;;;;;;4992710;28;20202;-80
2021/08/04 01:11:30;;;;;;;2.30;2.10;;;19.50;99.90;;;;;;4992536;28;20613;-81
2021/08/04 01:14:00;;;;;;;2.42;2.22;;;19.50;99.90;;;;;;4992906;28;20204;-78
2021/08/04 01:16:29;;;;;;;2.50;1.75;;;19.50;99.90;;;;;;4985978;28;20684;-79
2021/08/04 01:19:02;;;;;;;3.72;2.45;;;19.50;99.90;;;;;;4994184;28;20221;-79
2021/08/04 01:21:35;;;;;;;2.20;2.00;;;19.50;99.90;;;;;;4992896;28;20223;-78
2021/08/04 01:24:10;;;;;;;2.42;2.05;;;19.50;99.90;;;;;;4989903;28;20203;-78
2021/08/04 01:26:40;;;;;;;3.30;2.20;;;19.50;99.90;;;;;;4992923;28;20568;-79
2021/08/04 01:29:09;;;;;;;2.25;1.90;;;19.50;99.90;;;;;;4987920;28;20202;-78
2021/08/04 01:31:38;;;;;;;3.03;2.80;;;19.40;99.90;;;;;;4993741;28;20842;-78
2021/08/04 01:34:06;;;;;;;2.65;2.30;;;19.40;99.90;;;;;;4991900;28;20197;-79
2021/08/04 01:36:34;;;;;;;2.25;2.05;;;19.40;99.90;;;;;;4992353;28;20206;-80
2021/08/04 01:39:04;;;;;;;2.50;2.30;;;19.40;99.90;;;;;;5001004;28;20201;-79
2021/08/04 01:41:33;;;;;;;3.25;1.85;;;19.30;99.90;;;;;;4994445;28;20529;-80
2021/08/04 01:44:02;;;;;;;2.47;1.83;;;19.30;99.90;;;;;;4991357;28;20577;-79
2021/08/04 01:46:29;;;;;;;2.15;2.05;;;19.30;99.90;;;;;;4988867;28;20205;-79
2021/08/04 01:48:58;;;;;;;2.80;1.90;;;19.30;99.90;;;;;;4993753;28;20276;-79
2021/08/04 01:51:26;;;;;;;1.90;1.80;;;19.30;99.90;;;;;;4992966;28;20213;-80
2021/08/04 01:53:53;;;;;;;2.40;1.70;;;19.30;99.90;;;;;;4992026;28;20234;-79
2021/08/04 01:56:20;;;;;;;2.42;2.00;;;19.30;99.90;;;;;;4992169;28;20193;-80
2021/08/04 01:58:47;;;;;;;3.13;2.05;;;19.30;99.90;;;;;;4990822;28;20201;-79
2021/08/04 02:01:15;;;;;;;2.35;2.17;;;19.30;99.90;;;;;;4991729;28;20201;-80
2021/08/04 02:03:41;;;;;;;2.30;2.10;;;19.30;99.90;;;;;;4990986;28;20209;-79
2021/08/04 02:06:15;;;;;;;2.92;2.10;;;19.30;99.90;;;;;;4993230;28;20581;-83
2021/08/04 02:08:50;;;;;;;2.20;2.00;;;19.20;99.90;;;;;;4993255;28;20206;-82
2021/08/04 02:11:22;;;;;;;3.60;2.35;;;19.20;99.90;;;;;;4988992;28;20668;-80
2021/08/04 02:13:53;;;;;;;2.40;2.20;;;19.20;99.90;;;;;;4993002;28;20185;-82
2021/08/04 02:16:27;;;;;;;2.47;2.28;;;19.20;99.90;;;;;;4991180;28;20202;-82
2021/08/04 02:19:03;;;;;;;2.83;2.03;;;19.20;99.90;;;;;;4992217;28;20193;-79
2021/08/04 02:21:31;;;;;;;2.47;1.90;;;19.20;99.90;;;;;;4992176;28;20292;-80
2021/08/04 02:24:00;;;;;;;2.45;2.20;;;19.20;99.90;;;;;;4990988;28;20216;-79
2021/08/04 02:26:29;;;;;;;2.70;2.50;;;19.20;99.90;;;;;;4993315;28;20193;-79
2021/08/04 02:28:57;;;;;;;2.50;2.30;;;19.20;99.90;;;;;;4990568;28;20585;-79
2021/08/04 02:31:26;;;;;;;4.60;2.75;;;19.20;99.90;;;;;;4982400;28;20205;-79
2021/08/04 02:33:54;;;;;;;1.92;1.80;;;19.20;99.90;;;;;;4993578;28;20256;-79
2021/08/04 02:36:21;;;;;;;2.17;1.98;;;19.20;99.90;;;;;;4992451;28;20217;-78
2021/08/04 02:38:48;;;;;;;2.38;1.92;;;19.20;99.90;;;;;;4994137;28;20263;-79
2021/08/04 02:41:15;;;;;;;4.63;2.50;;;19.20;99.90;;;;;;4991396;28;20221;-79
2021/08/04 02:43:42;;;;;;;2.42;2.22;;;19.20;99.90;;;;;;4996266;28;20201;-77
2021/08/04 02:46:10;;;;;;;2.28;2.08;;;19.10;99.90;;;;;;4995471;28;20255;-79
2021/08/04 02:48:38;;;;;;;3.65;2.70;;;19.10;99.90;;;;;;4996880;28;20220;-80
2021/08/04 02:51:10;;;;;;;2.40;2.20;;;19.20;99.90;;;;;;4995061;28;20811;-79
2021/08/04 02:53:37;;;;;;;2.83;2.33;;;19.10;99.90;;;;;;4995459;28;20233;-79
2021/08/04 02:56:04;;;;;;;2.60;2.38;;;19.10;99.90;;;;;;4997117;28;20205;-78
2021/08/04 02:58:36;;;;;;;2.53;2.33;;;19.10;99.90;;;;;;4995645;28;20629;-79
2021/08/04 03:01:03;;;;;;;3.08;2.38;;;19.20;99.90;;;;;;4994604;28;20205;-80
2021/08/04 03:03:30;;;;;;;3.10;2.42;;;19.10;99.90;;;;;;4996751;28;20259;-79
2021/08/04 03:05:58;;;;;;;2.20;2.00;;;19.10;99.90;;;;;;4995509;28;20209;-79
2021/08/04 03:08:25;;;;;;;2.97;2.72;;;19.10;99.90;;;;;;4996410;28;20199;-79
2021/08/04 03:10:51;;;;;;;2.40;2.20;;;19.10;99.90;;;;;;4995611;28;20235;-79
2021/08/04 03:13:18;;;;;;;3.53;2.30;;;19.10;99.90;;;;;;4996884;28;20193;-80
2021/08/04 03:15:45;;;;;;;2.70;2.50;;;19.10;99.90;;;;;;4994536;28;20206;-79
2021/08/04 03:18:11;;;;;;;2.50;2.30;;;19.10;99.90;;;;;;4994918;28;20280;-81
2021/08/04 03:20:38;;;;;;;2.30;2.10;;;19.00;99.90;;;;;;4994527;28;20672;-81
2021/08/04 03:23:06;;;;;;;3.50;2.70;;;19.00;99.90;;;;;;4996701;28;20202;-81
2021/08/04 03:25:33;;;;;;;3.15;2.85;;;19.00;99.90;;;;;;4995482;28;20206;-79
2021/08/04 03:28:00;;;;;;;2.92;2.72;;;19.00;99.90;;;;;;4993570;28;20205;-80
2021/08/04 03:30:26;;;;;;;3.58;1.92;;;19.00;99.90;;;;;;4990760;28;20198;-78
2021/08/04 03:32:53;;;;;;;2.83;2.63;;;19.00;99.90;;;;;;4984827;28;20206;-81
2021/08/04 03:35:20;;;;;;;2.85;2.40;;;19.00;99.90;;;;;;4991635;28;20202;-82
2021/08/04 03:37:46;;;;;;;3.13;2.63;;;19.00;99.90;;;;;;4988979;28;20216;-85
2021/08/04 03:40:15;;;;;;;2.92;2.70;;;19.00;99.90;;;;;;4988852;28;20225;-80
2021/08/04 03:42:41;;;;;;;2.65;2.45;;;19.00;99.90;;;;;;4988210;28;20197;-80
2021/08/04 03:45:09;;;;;;;3.30;3.00;;;19.00;99.90;;;;;;4988159;28;20212;-79
2021/08/04 03:47:36;;;;;;;2.88;2.20;;;18.90;99.90;;;;;;4987666;28;20253;-78
2021/08/04 03:50:03;;;;;;;2.50;2.30;;;19.00;99.90;;;;;;4990573;28;20205;-79
2021/08/04 03:52:30;;;;;;;2.63;2.42;;;18.90;99.90;;;;;;4988986;28;20205;-79
2021/08/04 03:54:56;;;;;;;2.80;2.60;;;18.90;99.90;;;;;;4985308;28;20236;-78
2021/08/04 03:57:24;;;;;;;2.92;2.72;;;18.90;99.90;;;;;;4988045;28;20209;-79
2021/08/04 03:59:51;;;;;;;2.42;2.20;;;18.90;99.90;;;;;;4988202;28;20225;-82
2021/08/04 04:02:18;;;;;;;2.83;2.63;;;18.90;99.90;;;;;;4988189;28;20625;-83
2021/08/04 04:04:45;;;;;;;4.65;3.10;;;18.90;99.90;;;;;;4988051;28;20205;-78
2021/08/04 04:07:12;;;;;;;2.67;2.47;;;18.80;99.90;;;;;;4988949;28;20212;-78
2021/08/04 04:09:39;;;;;;;2.58;2.28;;;18.90;99.90;;;;;;4987726;28;20216;-77
2021/08/04 04:12:06;;;;;;;2.15;1.95;;;18.80;99.90;;;;;;4986181;28;20202;-78
2021/08/04 04:14:34;;;;;;;2.80;2.60;;;18.80;99.90;;;;;;4987244;28;20252;-81
2021/08/04 04:17:01;;;;;;;3.33;2.17;;;18.80;99.90;;;;;;4987485;28;20198;-78
2021/08/04 04:19:27;;;;;;;2.83;2.63;;;18.80;99.90;;;;;;4987238;28;20205;-78
2021/08/04 04:21:54;;;;;;;2.97;2.78;;;18.80;99.90;;;;;;4988180;28;20225;-79
2021/08/04 04:24:21;;;;;;;2.85;2.65;;;18.80;99.90;;;;;;4986567;28;20264;-78
2021/08/04 04:26:47;;;;;;;5.35;2.75;;;18.80;99.90;;;;;;4987498;28;20197;-79
2021/08/04 04:29:14;;;;;;;2.50;2.30;;;18.80;99.90;;;;;;4990652;28;20256;-77
2021/08/04 04:31:42;;;;;;;3.05;2.55;;;18.80;99.90;;;;;;4990954;28;20271;-78
2021/08/04 04:34:09;;;;;;;2.90;2.60;;;18.80;99.90;;;;;;4994165;28;20288;-77
2021/08/04 04:36:36;;;;;;;2.47;2.22;;;18.80;99.90;;;;;;4994087;28;20240;-78
2021/08/04 04:39:02;;;;;;;2.53;2.33;;;18.70;99.90;;;;;;4991621;28;20573;-78
2021/08/04 04:41:29;;;;;;;2.65;2.20;;;18.80;99.90;;;;;;4990352;28;20217;-78
2021/08/04 04:43:56;;;;;;;2.97;2.78;;;18.70;99.90;;;;;;4990318;28;20197;-79
2021/08/04 04:46:22;;;;;;;3.20;2.80;;;18.80;99.90;;;;;;4991402;28;20198;-82
2021/08/04 04:48:50;;;;;;;2.65;2.45;;;18.80;99.90;;;;;;4990210;28;20240;-77
2021/08/04 04:51:17;;;;;;;3.17;2.42;;;18.80;99.90;;;;;;4990298;28;20193;-78
2021/08/04 04:53:44;;;;;;;2.28;2.13;;;18.70;99.90;;;;;;4990433;28;20241;-79
2021/08/04 04:56:10;;;;;;;2.53;2.33;;;18.70;99.90;;;;;;4990086;28;20204;-79
2021/08/04 04:58:37;;;;;;;2.78;2.58;;;18.70;99.90;;;;;;4989929;28;20272;-77
2021/08/04 05:01:04;;;;;;;2.78;2.50;;;18.70;99.90;;;;;;4990445;28;20225;-77
2021/08/04 05:03:30;;;;;;;2.95;2.75;;;18.70;99.90;;;;;;4990165;28;20209;-78
2021/08/04 05:05:58;;;;;;;2.38;1.80;;;18.70;99.90;;;;;;4989849;28;20205;-78
2021/08/04 05:08:25;;;;;;;3.30;2.97;;;18.70;99.90;;;;;;4989461;28;20206;-78
2021/08/04 05:10:52;;;;;;;4.25;3.00;;;18.80;99.90;;;;;;4990283;28;20531;-78
2021/08/04 05:13:18;;;;;;;2.10;1.90;;;18.80;99.90;;;;;;4989174;28;20201;-79
2021/08/04 05:15:45;;;;;;;3.63;3.33;;;18.70;99.90;;;;;;4989596;28;20255;-78
2021/08/04 05:18:12;;;;;;;2.70;2.17;;;18.70;99.90;;;;;;4989857;28;20201;-78
2021/08/04 05:20:38;;;;;;;4.82;2.70;;;18.80;99.90;;;;;;4991462;28;20219;-81
2021/08/04 05:23:07;;;;;;;2.35;2.10;;;18.80;99.90;;;;;;4992293;28;20229;-80
2021/08/04 05:25:33;;;;;;;2.25;2.05;;;18.80;99.90;;;;;;4993757;28;20205;-80
2021/08/04 05:28:00;;;;;;;2.53;2.10;;;18.80;99.90;;;;;;4994254;28;20205;-82
2021/08/04 05:30:27;;;;;;;2.33;2.13;;;18.80;99.90;;;;;;4993246;28;20264;-82
2021/08/04 05:32:53;;;;;;;3.00;2.60;;;18.70;99.90;;;;;;4993773;28;20279;-80
2021/08/04 05:35:20;;;;;;;2.30;2.10;;;18.70;99.90;;;;;;4986295;28;20629;-82
2021/08/04 05:37:46;;;;;;;5.07;2.35;;;18.70;99.90;;;;;;4985906;28;20204;-83
2021/08/04 05:40:15;;;;;;;2.80;2.60;;;18.70;99.90;;;;;;4984868;28;20212;-81
2021/08/04 05:42:42;;;;;;;2.53;2.33;;;18.70;99.90;;;;;;4985697;28;20218;-82
2021/08/04 05:45:09;;;;;;;3.42;2.00;;;18.70;99.90;;;;;;4984969;28;20260;-82
2021/08/04 05:47:36;;;;;;;2.38;2.17;;;18.70;99.90;;;;;;4985373;28;20205;-81
2021/08/04 05:50:03;;;;;;;3.17;2.50;;;18.70;99.90;;;;;;4989577;28;20206;-79
2021/08/04 05:52:30;;;;;;;2.20;2.00;;;18.70;99.90;;;;;;4989667;28;20205;-79
2021/08/04 05:54:57;;;;;;;2.70;2.45;;;18.70;99.90;;;;;;4989523;28;20307;-81
2021/08/04 05:57:25;;;;;;;2.47;2.28;;;18.70;99.90;;;;;;4992096;28;20197;-80
2021/08/04 05:59:51;;;;;;;2.30;2.10;;;18.70;99.90;;;;;;4992043;28;20565;-80
2021/08/04 06:02:18;;;;;;;2.47;2.25;;;18.70;99.90;;;;;;4992401;28;20221;-79
2021/08/04 06:04:45;;;;;;;3.53;2.80;;;18.70;99.90;;;;;;4991255;28;20216;-78
2021/08/04 06:07:12;;;;;;;3.35;3.05;;;18.70;99.90;;;;;;4990859;28;20193;-79
2021/08/04 06:09:38;;;;;;;4.13;2.60;;;18.70;99.90;;;;;;4991439;28;20205;-79
2021/08/04 06:12:06;;;;;;;2.40;2.20;;;18.70;99.90;;;;;;4986903;28;20256;-78
2021/08/04 06:14:34;;;;;;;2.85;2.00;;;18.70;99.90;;;;;;4991214;28;20201;-79
2021/08/04 06:17:00;;;;;;;3.13;2.20;;;18.70;99.90;;;;;;4989231;28;20208;-76
2021/08/04 06:19:27;;;;;;;1.75;1.65;;;18.80;99.90;;;;;;4993801;28;20197;-78
2021/08/04 06:21:54;;;;;;;2.17;1.90;;;18.90;99.90;;;;;;4995280;28;20299;-77
2021/08/04 06:24:21;;;;;;;3.78;2.25;;;18.80;99.90;;;;;;4993648;28;20731;-78
2021/08/04 06:26:48;;;;;;;2.15;2.05;;;18.90;99.90;;;;;;4987889;28;20210;-77
2021/08/04 06:29:14;;;;;;;5.53;2.38;;;18.90;99.90;;;;;;4988985;28;20201;-77
2021/08/04 06:31:42;;;;;;;1.90;1.73;;;19.00;99.90;;;;;;4992483;28;20209;-77
2021/08/04 06:34:09;;;;;;;1.85;1.75;;;19.10;99.90;;;;;;4994959;28;20208;-77
2021/08/04 06:36:36;;;;;;;2.25;1.70;;;19.00;99.90;;;;;;4996179;28;20210;-77
2021/08/04 06:39:02;;;;;;;2.20;1.80;;;19.10;99.90;;;;;;4996319;28;20201;-77
2021/08/04 06:41:29;;;;;;;2.20;2.00;;;19.10;99.90;;;;;;4995514;28;20213;-81
2021/08/04 06:43:56;;;;;;;2.03;1.77;;;19.30;99.90;;;;;;4993332;28;20550;-80
2021/08/04 06:46:22;;;;;;;2.30;2.10;;;19.40;99.90;;;;;;4994577;28;20537;-80
2021/08/04 06:48:51;;;;;;;1.85;1.65;;;19.60;99.90;;;;;;4995400;28;20541;-79
2021/08/04 06:51:18;;;;;;;2.60;1.63;;;19.90;99.90;;;;;;4996279;28;20300;-80
2021/08/04 06:53:49;;;;;;;2.15;1.95;;;20.10;99.90;;;;;;4996867;28;20691;-81
2021/08/04 06:56:15;;;;;;;1.70;1.60;;;20.30;99.90;;;;;;4995694;28;20198;-80
2021/08/04 06:58:42;;;;;;;2.05;1.70;;;20.50;99.90;;;;;;4997448;28;20205;-80
2021/08/04 07:01:08;;;;;;;2.28;1.98;;;20.70;99.90;;;;;;4994644;28;20222;-75
2021/08/04 07:03:38;;;;;;;1.90;1.80;;;20.70;99.90;;;;;;4996608;28;20636;-78
2021/08/04 07:06:06;;;;;;;3.97;2.40;;;20.80;99.90;;;;;;4995062;28;20197;-77
2021/08/04 07:08:33;;;;;;;2.63;1.83;;;20.80;99.90;;;;;;4996727;28;20197;-77
2021/08/04 07:10:59;;;;;;;1.95;1.75;;;20.80;99.90;;;;;;4991602;28;20747;-79
2021/08/04 07:13:26;;;;;;;2.92;2.15;;;20.90;99.90;;;;;;4993070;28;20197;-80
2021/08/04 07:15:53;;;;;;;2.17;1.98;;;21.00;99.90;;;;;;4992022;28;20213;-79
2021/08/04 07:18:19;;;;;;;1.77;1.52;;;21.10;99.90;;;;;;4990511;28;20193;-81
2021/08/04 07:20:46;;;;;;;1.90;1.38;;;21.10;99.90;;;;;;4992140;28;20593;-80
2021/08/04 07:23:14;;;;;;;3.50;2.15;;;21.30;99.90;;;;;;4992080;28;20201;-81
2021/08/04 07:25:41;;;;;;;2.17;1.20;;;21.50;99.90;;;;;;4992324;28;20209;-81
2021/08/04 07:28:08;;;;;;;2.30;1.63;;;21.60;99.90;;;;;;4992202;28;21535;-81
2021/08/04 07:30:35;;;;;;;1.80;1.70;;;21.70;99.90;;;;;;4991297;28;20248;-80
2021/08/04 07:33:01;;;;;;;2.57;1.60;;;22.00;99.90;;;;;;4992652;28;20456;-79
2021/08/04 07:35:28;;;;;;;1.70;1.57;;;22.10;99.90;;;;;;4992410;28;20469;-80
2021/08/04 07:37:55;;;;;;;2.93;1.77;;;22.20;99.90;;;;;;4991661;28;20467;-80
2021/08/04 07:40:23;;;;;;;1.63;1.50;;;22.30;99.90;;;;;;4990294;28;20465;-80
2021/08/04 07:42:50;;;;;;;2.00;1.40;;;22.40;99.90;;;;;;4991696;28;20492;-81
2021/08/04 07:45:18;;;;;;;2.43;1.57;;;22.40;99.90;;;;;;4993868;28;20468;-80
2021/08/04 07:47:45;;;;;;;2.13;1.50;;;22.50;99.90;;;;;;4994269;28;20464;-80
2021/08/04 07:50:12;;;;;;;2.07;1.50;;;22.60;99.90;;;;;;4994429;28;20766;-81
2021/08/04 07:52:39;;;;;;;3.03;1.83;;;22.70;99.90;;;;;;4993575;28;20456;-80
2021/08/04 07:55:07;;;;;;;1.90;1.50;;;22.90;99.90;;;;;;4994658;28;20820;-81
2021/08/04 07:57:35;;;;;;;1.73;1.60;;;23.00;99.90;;;;;;4994702;28;20984;-80
2021/08/04 08:00:02;;;;;;;2.20;2.00;;;23.10;99.90;;;;;;4994413;28;20951;-80
2021/08/04 08:02:28;;;;;;;2.10;1.43;;;23.20;99.90;;;;;;4993065;28;20480;-79
2021/08/04 08:04:57;;;;;;;1.50;1.30;;;23.20;99.90;;;;;;4994780;28;20800;-81
2021/08/04 08:07:24;;;;;;;2.07;1.50;;;23.10;99.90;;;;;;4995495;28;20528;-81
2021/08/04 08:09:51;;;;;;;1.57;1.33;;;23.30;99.90;;;;;;4993585;28;20468;-81
2021/08/04 08:12:17;;;;;;;1.30;1.20;;;23.30;99.90;;;;;;4994878;28;20484;-80
2021/08/04 08:14:45;;;;;;;1.60;1.40;;;23.40;99.90;;;;;;4994333;28;20460;-80
2021/08/04 08:17:12;;;;;;;5.87;2.40;;;23.40;99.90;;;;;;4992707;28;20479;-80
2021/08/04 08:19:39;;;;;;;3.40;1.27;;;23.40;99.90;;;;;;4992098;28;20492;-79
2021/08/04 08:22:06;;;;;;;3.43;2.00;;;23.50;99.90;;;;;;4984722;28;20972;-80
2021/08/04 08:24:33;;;;;;;2.23;2.03;;;23.60;99.90;;;;;;4990883;28;20498;-77
2021/08/04 08:27:00;;;;;;;1.70;1.60;;;23.60;99.90;;;;;;4995240;28;20762;-78
2021/08/04 08:29:26;;;;;;;2.27;1.57;;;23.60;99.90;;;;;;4995175;28;20762;-77
2021/08/04 08:31:54;;;;;;;3.30;2.07;;;23.60;99.90;;;;;;4995143;28;20441;-77
2021/08/04 08:34:21;;;;;;;1.93;1.80;;;23.60;99.90;;;;;;4994598;28;20536;-77
2021/08/04 08:36:48;;;;;;;2.43;1.90;;;23.70;99.90;;;;;;4994335;28;20449;-78
2021/08/04 08:39:14;;;;;;;1.93;1.60;;;23.70;99.90;;;;;;5004454;28;20448;-77
2021/08/04 08:41:44;;;;;;;1.60;1.50;;;23.80;99.90;;;;;;4994272;28;20824;-78
2021/08/04 08:44:11;;;;;;;2.73;1.73;;;23.80;99.90;;;;;;4994430;28;20448;-77
2021/08/04 08:46:38;;;;;;;4.33;1.80;;;23.80;99.90;;;;;;4995250;28;20455;-78
2021/08/04 08:49:06;;;;;;;1.97;1.57;;;23.80;99.90;;;;;;4994823;28;20441;-78
2021/08/04 08:51:32;;;;;;;1.80;1.70;;;23.80;99.90;;;;;;4993231;28;20452;-77
2021/08/04 08:54:00;;;;;;;1.97;1.70;;;23.80;99.90;;;;;;4993432;28;20959;-77
2021/08/04 08:56:27;;;;;;;1.60;1.40;;;23.80;99.90;;;;;;4994535;28;20459;-79
2021/08/04 08:58:55;;;;;;;1.93;1.60;;;23.80;99.90;;;;;;4994437;28;20460;-80
2021/08/04 09:01:36;;;;;;;1.90;1.63;;;23.90;99.90;;;;;;4994380;28;20460;-79
2021/08/04 09:04:05;;;;;;;2.13;1.80;;;24.00;99.90;;;;;;4994606;28;20436;-79
2021/08/04 09:06:47;;;;;;;1.97;1.77;;;24.00;99.90;;;;;;4994119;28;20444;-79
2021/08/04 09:09:18;;;;;;;1.83;1.73;;;24.00;99.90;;;;;;4994840;28;20440;-79
2021/08/04 09:11:46;;;;;;;2.00;1.73;;;24.00;99.90;;;;;;4994214;28;20440;-80
2021/08/04 09:14:13;;;;;;;2.40;1.40;;;24.00;99.90;;;;;;4994404;28;20464;-80
2021/08/04 09:16:40;;;;;;;1.53;1.30;;;24.00;99.90;;;;;;4993623;28;20440;-79
2021/08/04 09:19:21;;;;;;;2.10;1.90;;;24.10;99.90;;;;;;4991595;28;20511;-80
2021/08/04 09:22:22;;;;;;;2.00;1.60;;;24.10;99.90;;;;;;4990568;28;20575;-80
2021/08/04 09:25:08;;;;;;;3.20;2.90;;;24.10;99.90;;;;;;4989933;28;20556;-77
2021/08/04 09:27:47;;;;;;;2.70;2.20;;;24.00;99.90;;;;;;4993772;28;20550;-82
2021/08/04 09:30:15;;;;;;;1.90;1.67;;;24.00;99.90;;;;;;4988467;28;20440;-79
2021/08/04 09:32:42;;;;;;;1.40;1.30;;;24.10;99.90;;;;;;4992401;28;20503;-80
2021/08/04 09:35:12;;;;;;;3.00;1.70;;;24.10;99.90;;;;;;4994126;28;20916;-78
2021/08/04 09:37:39;;;;;;;2.40;1.63;;;24.00;99.90;;;;;;4994787;28;20440;-78
2021/08/04 09:40:09;;;;;;;2.80;2.00;;;24.00;99.90;;;;;;4993703;28;20452;-81
2021/08/04 09:42:52;;;;;;;4.13;2.10;;;23.90;99.90;;;;;;4994556;28;20480;-80
2021/08/04 09:45:21;;;;;;;1.73;1.63;;;23.80;99.90;;;;;;4994158;28;20666;-81
2021/08/04 09:48:03;;;;;;;2.50;1.57;;;23.70;99.90;;;;;;4992585;28;20490;-77
2021/08/04 09:50:46;;;;;;;3.03;1.77;;;23.60;99.90;;;;;;4992856;28;20455;-79
2021/08/04 09:53:19;;;;;;;4.10;2.10;;;23.50;99.90;;;;;;4991149;28;20598;-80
2021/08/04 09:56:12;;;;;;;2.30;2.10;;;23.50;99.90;;;;;;4993353;28;20453;-77
2021/08/04 09:58:42;;;;;;;3.70;2.03;;;23.50;99.90;;;;;;4991506;28;20445;-80
2021/08/04 10:01:12;;;;;;;1.63;1.53;;;23.60;99.90;;;;;;4992993;28;20455;-78
2021/08/04 10:03:39;;;;;;;1.90;1.70;;;23.50;99.90;;;;;;4994110;28;20537;-78
2021/08/04 10:06:06;;;;;;;2.20;1.83;;;23.60;99.90;;;;;;4994116;28;20531;-80
2021/08/04 10:08:33;;;;;;;2.73;1.57;;;23.50;99.90;;;;;;4993994;28;20511;-79
2021/08/04 10:10:59;;;;;;;1.70;1.60;;;23.50;99.90;;;;;;4993217;28;20456;-79
2021/08/04 10:13:31;;;;;;;4.57;1.60;;;23.50;99.90;;;;;;4994264;28;20445;-79
2021/08/04 10:16:01;;;;;;;4.20;1.90;;;23.50;99.90;;;;;;4983025;28;20754;-77
2021/08/04 10:18:32;;;;;;;1.70;1.60;;;23.50;99.90;;;;;;4993184;28;20447;-89
2021/08/04 10:21:02;;;;;;;3.73;2.23;;;23.50;99.90;;;;;;4987163;28;20452;-80
2021/08/04 10:23:33;;;;;;;2.00;1.70;;;23.50;99.90;;;;;;4993940;28;20476;-78
2021/08/04 10:26:01;;;;;;;1.77;1.63;;;23.60;99.90;;;;;;4991332;28;20433;-77
2021/08/04 10:28:30;;;;;;;2.03;1.40;;;23.60;99.90;;;;;;4986815;28;20448;-77
2021/08/04 10:30:58;;;;;;;1.83;1.73;;;23.60;99.90;;;;;;4993519;28;20566;-76
2021/08/04 10:33:25;;;;;;;1.60;1.50;;;23.60;99.90;;;;;;4993282;28;20449;-85
2021/08/04 10:35:54;;;;;;;1.73;1.50;;;23.70;99.90;;;;;;4992575;28;20472;-78
2021/08/04 10:38:24;;;;;;;4.70;1.97;;;23.70;99.90;;;;;;4995752;28;20441;-77
2021/08/04 10:41:09;;;;;;;2.40;2.20;;;23.70;99.90;;;;;;4994140;28;20858;-91
2021/08/04 10:43:44;;;;;;;2.63;1.60;;;23.70;99.90;;;;;;4981355;28;20489;-87
2021/08/04 10:46:43;;;;;;;3.50;2.00;;;23.70;99.90;;;;;;4992436;28;20506;-77
2021/08/04 10:49:22;;;;;;;1.87;1.77;;;23.70;99.90;;;;;;4993118;28;20440;-76
2021/08/04 10:52:09;;;;;;;1.37;1.27;;;23.70;99.90;;;;;;4993799;28;20448;-75
2021/08/04 10:54:36;;;;;;;2.07;1.87;;;23.60;99.90;;;;;;4993135;28;20522;-79
2021/08/04 10:57:11;;;;;;;1.50;1.30;;;23.70;99.90;;;;;;4993759;28;20445;-78
2021/08/04 10:59:40;;;;;;;1.40;1.23;;;23.60;99.90;;;;;;4993338;28;20439;-83
2021/08/04 11:02:32;;;;;;;2.30;1.87;;;23.50;99.90;;;;;;4991208;28;20484;-78
2021/08/04 11:05:00;;;;;;;2.90;1.80;;;23.50;99.90;;;;;;4996553;28;20761;-80
2021/08/04 11:07:27;;;;;;;1.70;1.60;;;23.50;99.90;;;;;;4996270;28;20452;-84
2021/08/04 11:10:07;;;;;;;2.37;1.37;;;23.40;99.90;;;;;;4996020;28;20449;-84
2021/08/04 11:12:44;;;;;;;4.00;1.80;;;23.40;99.90;;;;;;4997396;28;20432;-82
2021/08/04 11:15:28;;;;;;;3.00;1.53;;;23.40;99.90;;;;;;4996999;28;20780;-78
2021/08/04 11:18:03;;;;;;;2.23;1.47;;;23.40;99.90;;;;;;4996635;28;20948;-79
2021/08/04 11:20:30;;;;;;;1.50;1.40;;;23.40;99.90;;;;;;4996550;28;20513;-76
2021/08/04 11:22:57;;;;;;;1.77;1.67;;;23.40;99.90;;;;;;4996616;28;20488;-79
2021/08/04 11:25:40;;;;;;;1.53;1.33;;;23.40;99.90;;;;;;4993972;28;20440;-78
2021/08/04 11:28:20;;;;;;;2.40;2.00;;;23.40;99.90;;;;;;4996963;28;20843;-81
2021/08/04 11:30:54;;;;;;;1.70;1.60;;;23.30;99.90;;;;;;4992212;28;20455;-77
2021/08/04 11:33:32;;;;;;;1.90;1.60;;;23.40;99.90;;;;;;4996604;28;20452;-79
2021/08/04 11:36:08;;;;;;;1.70;1.40;;;23.30;99.90;;;;;;4996704;28;20433;-78
2021/08/04 11:38:40;;;;;;;2.07;1.97;;;23.30;99.90;;;;;;4996615;28;20841;-77
2021/08/04 11:41:25;;;;;;;6.50;2.53;;;23.30;99.90;;;;;;4995920;28;20441;-79
2021/08/04 11:43:59;;;;;;;4.67;1.90;;;23.10;99.90;;;;;;4996300;28;20476;-82
2021/08/04 11:46:38;;;;;;;4.60;2.03;;;23.20;99.90;;;;;;4992321;28;20515;-79
2021/08/04 11:49:08;;;;;;;1.80;1.70;;;22.90;99.90;;;;;;4996257;28;20197;-77
2021/08/04 11:51:38;;;;;;;2.53;2.07;;;23.10;99.90;;;;;;4996310;28;20515;-78
2021/08/04 11:54:06;;;;;;;1.57;1.47;;;23.10;99.90;;;;;;4996429;28;20534;-76
2021/08/04 11:56:33;;;;;;;1.63;1.50;;;23.20;99.90;;;;;;4995973;28;20456;-78
2021/08/04 11:59:02;;;;;;;2.30;1.73;;;23.20;99.90;;;;;;4996117;28;20452;-77
2021/08/04 12:01:29;;;;;;;2.20;2.00;;;23.30;99.90;;;;;;4988453;28;20933;-81
2021/08/04 12:04:11;;;;;;;1.40;1.20;;;23.30;99.90;;;;;;4993536;28;20535;-77
2021/08/04 12:06:40;;;;;;;2.20;1.77;;;23.30;99.90;;;;;;4996049;28;20449;-77
2021/08/04 12:09:18;;;;;;;2.53;1.77;;;23.40;99.90;;;;;;4996283;28;20441;-78
2021/08/04 12:11:45;;;;;;;1.70;1.30;;;23.40;99.90;;;;;;4994208;28;20444;-79
2021/08/04 12:14:13;;;;;;;1.67;1.57;;;23.40;99.90;;;;;;4995297;28;20932;-79
2021/08/04 12:16:43;;;;;;;1.57;1.47;;;23.40;99.90;;;;;;4994846;28;20905;-78
2021/08/04 12:19:11;;;;;;;2.87;1.97;;;23.60;99.90;;;;;;4996091;28;20441;-81
2021/08/04 12:21:38;;;;;;;1.90;1.80;;;23.50;99.90;;;;;;4995376;28;20848;-81
2021/08/04 12:24:05;;;;;;;1.50;1.40;;;23.50;99.90;;;;;;4989590;28;20484;-81
2021/08/04 12:26:43;;;;;;;1.93;1.73;;;23.40;99.90;;;;;;4995008;28;20548;-81
2021/08/04 12:29:18;;;;;;;1.73;1.63;;;23.40;99.90;;;;;;4994688;28;20532;-78
2021/08/04 12:32:04;;;;;;;3.07;1.80;;;23.40;99.90;;;;;;4995584;28;20452;-79
2021/08/04 12:34:42;;;;;;;1.67;1.57;;;23.40;99.90;;;;;;4991609;28;20452;-79
2021/08/04 12:37:09;;;;;;;2.33;1.80;;;23.40;99.90;;;;;;4994876;28;20460;-81
2021/08/04 12:39:36;;;;;;;3.20;1.70;;;23.40;99.90;;;;;;4995144;28;20507;-77
2021/08/04 12:42:04;;;;;;;2.17;1.80;;;23.40;99.90;;;;;;4994176;28;20780;-76
2021/08/04 12:44:31;;;;;;;1.50;1.40;;;23.40;99.90;;;;;;4994438;28;20480;-79
2021/08/04 12:46:59;;;;;;;2.30;1.17;;;23.40;99.90;;;;;;4995004;28;20494;-77
2021/08/04 12:49:27;;;;;;;5.33;1.83;;;23.40;99.90;;;;;;4994806;28;20453;-83
2021/08/04 12:51:56;;;;;;;3.63;2.30;;;23.20;99.90;;;;;;4994951;28;20448;-80
2021/08/04 12:54:33;;;;;;;2.57;1.70;;;23.30;99.90;;;;;;4993866;28;20476;-78
2021/08/04 12:57:01;;;;;;;1.67;1.40;;;23.30;99.90;;;;;;4990448;28;20932;-77